This is the latest recevied weather packets stored in our database for station/object OE5OVL-13. If no packets are shown the sender has not sent any weather packets the latest 10 day(s).
| Time | Temp. | Humidity | Pressure | Rain* | Wind** | Luminosity | Snow |
|---|---|---|---|---|---|---|---|
| 1777538323 | 12.78° C | 41% | 720.4 hPa | 0 mm | - | - | - |
| 1777537412 | 11.67° C | 36% | 719.2 hPa | 0 mm | - | - | - |
| 1777536500 | 11.67° C | 39% | 719.6 hPa | 0 mm | - | - | - |
| 1777535588 | 11.67° C | 43% | 719.3 hPa | 0 mm | - | - | - |
| 1777534676 | 9.44° C | 38% | 717 hPa | 0 mm | - | - | - |
| 1777533765 | 8.89° C | 39% | 716.5 hPa | 0 mm | - | - | - |
| 1777532853 | 8.33° C | 41% | 715.9 hPa | 0 mm | - | - | - |
| 1777531941 | 7.78° C | 41% | 715.2 hPa | 0 mm | - | - | - |
| 1777531029 | 7.78° C | 43% | 714.9 hPa | 0 mm | - | - | - |
| 1777530118 | 7.22° C | 44% | 714.4 hPa | 0 mm | - | - | - |
| 1777500030 | 10.56° C | 29% | 717.8 hPa | 0 mm | - | - | - |
| 1777499118 | 10.56° C | 28% | 718 hPa | 0 mm | - | - | - |
| 1777498206 | 10.56° C | 28% | 718.2 hPa | 0 mm | - | - | - |
| 1777497295 | 10.56° C | 28% | 718.2 hPa | 0 mm | - | - | - |
| 1777495471 | 11.67° C | 29% | 719 hPa | 0 mm | - | - | - |
| 1777494559 | 11.67° C | 29% | 719.5 hPa | 0 mm | - | - | - |
| 1777493648 | 12.22° C | 30% | 719.8 hPa | 0 mm | - | - | - |
| 1777492736 | 12.22° C | 32% | 720.2 hPa | 0 mm | - | - | - |
| 1777490912 | 13.89° C | 32% | 722 hPa | 0 mm | - | - | - |
| 1777490001 | 14.44° C | 30% | 722.3 hPa | 0 mm | - | - | - |
| 1777489089 | 14.44° C | 29% | 722.8 hPa | 0 mm | - | - | - |
| 1777488177 | 15° C | 29% | 722.9 hPa | 0 mm | - | - | - |
| 1777487265 | 15.56° C | 29% | 723.5 hPa | 0 mm | - | - | - |
| 1777486354 | 16.11° C | 28% | 724.5 hPa | 0 mm | - | - | - |
| 1777485442 | 17.78° C | 26% | 726.1 hPa | 0 mm | - | - | - |
* Rain latest hour (hover to see other rain measurements)
** Current wind speed in m/s (hover to see current wind gust speed)